Historyczne dane pomiarowe

Dodano dane terminowe – wersja testowa.

Dane z okresu 1951-2019

Wersja bazy: 1.34 [2019-03-16, lista zmian], aktualizacja planowana na 2019-04-15

Dane meteo z obszaru Polski uzyskane na podstawie danych udostępnionych przez Instytut Meteorologii i Gospodarki Wodnej – Państwowy Instytut Badawczy.

 

Wybierz Datę:    

       

TemperaturaWilgotnośćWiatrCiśnienieOpadyŚniegCzas trwania zjawisk
 Stacja t tx tn tng RH VA  wxwx mslp ppp RRR   cm mm wxwxwxwxwxwxwx
1983-04-17 8.4 13.8 2.1 -1.9-- 1.7 1.3---- 0.0------------
1983-04-18 10.4 15.8 4.6 -1.3-- 5.0 2.0---- 0.0------------
1983-04-19 12.0 18.8 6.0 3.5-- 5.3 2.0---- 0.0------------
1983-04-20 14.0 18.7 7.2 2.4-- 3.3 2.7---- 0.0------------
1983-04-21 17.0 24.0 10.5 6.7-- 3.7 2.7---- 0.0------------
1983-04-22 17.2 20.7 15.2 12.9-- 4.7 1.3---- 1.0------------
1983-04-23 12.2 15.2 9.4 8.9-- 7.3 1.7---- 0.0------------
1983-04-24 16.4 21.9 10.8 7.4-- 4.7 0.7---- 0.0------------
1983-04-25 13.6 18.1 10.4 4.9-- 6.0 2.0---- 0.8------------
1983-04-26 16.0 23.0 9.5 4.7-- 2.7 1.3---- 0.0------------
1983-04-27 17.8 23.5 13.0 10.1-- 3.7 3.3---- 5.0------------
1983-04-28 14.4 18.9 10.6 7.9-- 3.0 0.3---- 0.0------------
1983-04-29 14.6 21.3 9.0 2.9-- 7.3 1.7---- 8.0------------
1983-04-30 12.4 15.8 9.0 4.9-- 4.0 1.0---- 0.0------------
1983-05-01 14.5 20.1 6.0 1.9-- 3.7 2.0---- 6.1------------
1983-05-02 10.0 17.0 8.4 6.9-- 8.0 7.0---- 14.2------------
1983-05-03 10.6 15.8 5.5 1.5-- 3.0 2.7---- 2.0------------
1983-05-04 10.5 15.2 4.6 -0.1-- 4.7 1.7---- 9.0------------
1983-05-05 8.0 13.0 6.0 0.9-- 7.7 3.0---- 0.8------------
1983-05-06 6.4 7.0 5.5 1.5-- 8.0 1.7---- 7.1------------
1983-05-07 8.7 15.0 1.1 -2.1-- 4.7 1.3---- 0.0------------
1983-05-08 11.4 16.0 7.5 -0.3-- 5.0 1.3---- 5.2------------
1983-05-09 10.3 12.5 9.0 5.9-- 8.0 1.0---- 5.3------------
1983-05-10 12.6 16.8 9.0 5.1-- 5.7 2.0---- 0.0------------
1983-05-11 14.0 17.9 9.0 5.1-- 5.7 2.3---- 3.5------------
1983-05-12 15.9 20.9 10.0 6.4-- 4.0 2.0---- 0.0------------
1983-05-13 18.7 22.9 12.5 4.3-- 4.0 1.7---- 5.2------------
1983-05-14 16.8 22.1 11.2 6.3-- 4.7 2.0---- 0.0------------
1983-05-15 22.1 27.0 15.5 9.7-- 1.7 2.0---- 0.0------------
1983-05-16 24.9 30.6 19.0 13.8-- 2.7 3.3---- 0.0------------
180.0 ms

 

Źródłem pochodzenia danych jest Instytut Meteorologii i Gospodarki Wodnej – Państwowy Instytut Badawczy. Dane Instytutu Meteorologii i Gospodarki Wodnej – Państwowego Instytutu Badawczego zostały przetworzone.

Dane źródłowe można odnaleźć na stronie https://dane.imgw.pl